Time;durP1;ratioP1;P1;durP2;ratioP2;P2;SDS_P1;SDS_P2;PMS_P1;PMS_P2;Temp;Humidity;BMP_temperature;BMP_pressure;BME280_temperature;BME280_humidity;BME280_pressure;Samples;Min_cycle;Max_cycle;Signal;HPM_P1;HPM_P2
2021/11/06 00:00:35;;;;;;;9.73;5.75;;;;;;;12.10;68.93;99895.23;1733680;82;20907;-43
2021/11/06 00:03:02;;;;;;;9.80;5.55;;;;;;;11.98;68.79;99896.70;1723737;82;21606;-43
2021/11/06 00:05:28;;;;;;;9.63;5.33;;;;;;;11.97;68.03;99895.13;1721620;82;21021;-43
2021/11/06 00:07:55;;;;;;;9.48;5.35;;;;;;;11.85;66.93;99896.62;1740846;82;21107;-43
2021/11/06 00:10:24;;;;;;;6.90;4.83;;;;;;;11.73;66.85;99893.44;1748410;82;20925;-43
2021/11/06 00:12:52;;;;;;;6.95;4.78;;;;;;;11.64;66.45;99899.60;1746217;82;20996;-43
2021/11/06 00:15:18;;;;;;;6.22;4.58;;;;;;;11.51;66.12;99907.08;1742070;82;21030;-43
2021/11/06 00:17:47;;;;;;;7.78;4.50;;;;;;;11.39;66.15;99899.02;1725334;82;21016;-42
2021/11/06 00:20:14;;;;;;;7.92;4.78;;;;;;;11.31;65.82;99902.70;1748840;82;21729;-42
2021/11/06 00:22:41;;;;;;;9.65;5.17;;;;;;;11.27;65.66;99908.62;1734670;82;20946;-43
2021/11/06 00:25:09;;;;;;;9.40;4.97;;;;;;;11.21;65.75;99905.38;1718794;82;21022;-43
2021/11/06 00:27:36;;;;;;;8.18;4.72;;;;;;;11.14;65.89;99919.31;1730897;82;21072;-42
2021/11/06 00:30:08;;;;;;;10.08;4.80;;;;;;;11.07;65.95;99921.86;1718518;82;21084;-42
2021/11/06 00:32:34;;;;;;;7.17;5.00;;;;;;;10.99;66.06;99924.95;1731434;82;21515;-42
2021/11/06 00:35:03;;;;;;;6.62;4.67;;;;;;;10.93;66.39;99922.86;1736924;82;21080;-42
2021/11/06 00:37:29;;;;;;;9.75;4.90;;;;;;;10.93;66.15;99922.86;1737774;82;21091;-43
2021/11/06 00:39:56;;;;;;;6.10;4.70;;;;;;;10.92;66.09;99917.20;1718722;82;21536;-43
2021/11/06 00:42:22;;;;;;;6.35;4.72;;;;;;;10.90;65.37;99920.25;1718984;82;21029;-42
2021/11/06 00:44:49;;;;;;;7.78;4.53;;;;;;;10.84;65.16;99916.23;1718610;83;21115;-42
2021/11/06 00:47:16;;;;;;;10.23;4.55;;;;;;;10.79;65.10;99931.41;1719641;82;21573;-42
2021/11/06 00:49:42;;;;;;;6.75;4.50;;;;;;;10.74;64.93;99921.59;1725941;82;20968;-42
2021/11/06 00:52:09;;;;;;;6.87;4.30;;;;;;;10.71;64.95;99913.34;1718825;82;21087;-43
2021/11/06 00:54:36;;;;;;;9.33;4.58;;;;;;;10.66;65.34;99919.81;1714208;82;21018;-43
2021/11/06 00:57:03;;;;;;;5.58;4.30;;;;;;;10.63;64.91;99927.29;1745748;82;21158;-42
2021/11/06 00:59:31;;;;;;;6.67;4.45;;;;;;;10.64;64.21;99938.36;1748282;82;21080;-43
2021/11/06 01:01:59;;;;;;;12.23;5.33;;;;;;;10.61;63.92;99936.33;1746314;82;20969;-43
2021/11/06 01:04:26;;;;;;;8.15;4.80;;;;;;;10.57;64.56;99933.30;1728765;82;20944;-41
2021/11/06 01:06:52;;;;;;;7.28;5.20;;;;;;;10.53;64.82;99932.41;1740971;82;21045;-42
2021/11/06 01:09:19;;;;;;;7.25;5.15;;;;;;;10.49;64.61;99939.09;1721424;82;21151;-43
2021/11/06 01:11:46;;;;;;;8.68;5.60;;;;;;;10.42;64.52;99942.38;1713010;83;21017;-41
2021/11/06 01:14:15;;;;;;;9.38;4.97;;;;;;;10.37;65.01;99936.41;1721569;82;20968;-42
2021/11/06 01:16:42;;;;;;;7.58;4.97;;;;;;;10.37;65.34;99949.97;1721328;82;21061;-42
2021/11/06 01:19:08;;;;;;;7.25;5.22;;;;;;;10.41;65.49;99956.27;1738785;82;21041;-42
2021/11/06 01:23:16;;;;;;;7.47;5.45;;;;;;;10.41;65.74;99965.20;1811358;78;22730;-43
2021/11/06 01:25:44;;;;;;;;;;;;;;;10.28;66.05;99963.66;1773732;81;21582;-43
2021/11/06 01:28:11;;;;;;;6.90;5.12;;;;;;;10.26;66.08;99970.56;1758710;79;21203;-42
2021/11/06 01:30:37;;;;;;;7.50;5.12;;;;;;;10.15;66.66;99966.70;1802446;79;21484;-43
2021/11/06 01:33:04;;;;;;;9.00;5.22;;;;;;;10.18;67.01;99968.75;1789506;79;21555;-43
2021/11/06 01:35:31;;;;;;;7.62;4.85;;;;;;;10.22;67.05;99970.44;1769243;80;21068;-43
2021/11/06 01:37:59;;;;;;;7.58;5.55;;;;;;;10.23;67.20;99968.52;1774881;79;20965;-42
2021/11/06 01:40:26;;;;;;;8.68;5.50;;;;;;;10.27;67.49;99981.60;1792967;79;21082;-42
2021/11/06 01:42:53;;;;;;;9.08;5.22;;;;;;;10.22;67.65;99979.13;1740869;81;21472;-43
2021/11/06 01:45:20;;;;;;;7.55;5.17;;;;;;;10.17;67.45;99978.00;1743565;82;20938;-42
2021/11/06 01:47:47;;;;;;;6.80;5.40;;;;;;;10.12;67.65;99970.87;1723153;82;20994;-42
2021/11/06 01:50:14;;;;;;;6.90;5.25;;;;;;;10.08;67.83;99981.38;1714069;82;21082;-42
2021/11/06 01:52:42;;;;;;;6.78;4.33;;;;;;;10.02;68.05;99972.13;1713981;82;21150;-42
2021/11/06 01:55:08;;;;;;;8.90;4.70;;;;;;;10.11;68.19;99973.38;1738492;82;21021;-42
2021/11/06 01:57:35;;;;;;;7.83;5.08;;;;;;;10.18;68.00;99974.97;1736730;82;21016;-43
2021/11/06 02:00:08;;;;;;;7.17;4.72;;;;;;;10.22;67.92;99980.48;1739811;80;21503;-43
2021/11/06 02:02:35;;;;;;;9.00;5.22;;;;;;;10.23;67.82;99980.71;1728476;82;21149;-43
2021/11/06 02:05:02;;;;;;;8.23;5.28;;;;;;;10.24;67.88;99990.42;1743365;82;21137;-43
2021/11/06 02:07:28;;;;;;;6.90;4.75;;;;;;;10.20;67.73;99997.10;1721860;82;21012;-43
2021/11/06 02:09:55;;;;;;;5.85;4.15;;;;;;;10.17;67.80;100002.39;1730781;82;20955;-43
2021/11/06 02:12:21;;;;;;;7.03;4.33;;;;;;;10.16;67.65;100008.97;1736728;82;21014;-43
2021/11/06 02:14:48;;;;;;;9.83;4.45;;;;;;;10.14;67.53;100019.31;1734041;82;21080;-43
2021/11/06 02:17:15;;;;;;;6.08;3.95;;;;;;;10.09;67.84;100019.53;1738106;82;21118;-43
2021/11/06 02:19:41;;;;;;;6.55;4.15;;;;;;;10.04;67.84;100024.06;1723344;82;21046;-43
2021/11/06 02:22:08;;;;;;;6.33;4.00;;;;;;;9.97;67.89;100016.28;1713451;82;21069;-43
2021/11/06 02:24:35;;;;;;;5.62;3.90;;;;;;;9.91;67.97;100021.13;1724393;82;20993;-43
2021/11/06 02:27:02;;;;;;;6.65;4.08;;;;;;;9.91;68.08;100027.11;1715129;82;21101;-43
2021/11/06 02:29:29;;;;;;;6.53;4.40;;;;;;;9.87;67.89;100020.23;1717467;82;21166;-43
2021/11/06 02:31:56;;;;;;;5.85;4.12;;;;;;;9.80;68.19;100025.41;1738085;81;21607;-42
2021/11/06 02:34:23;;;;;;;7.17;4.60;;;;;;;9.74;68.29;100021.89;1713511;82;20992;-43
2021/11/06 02:36:49;;;;;;;5.80;4.05;;;;;;;9.67;68.60;100010.30;1713440;82;21512;-43
2021/11/06 02:39:15;;;;;;;7.55;4.00;;;;;;;9.66;68.77;100003.29;1713560;82;21520;-42
2021/11/06 02:41:43;;;;;;;4.87;3.90;;;;;;;9.70;68.83;100009.61;1713646;82;21229;-43
2021/11/06 02:44:11;;;;;;;5.47;3.98;;;;;;;9.73;68.84;100017.63;1713506;82;20938;-43
2021/11/06 02:46:39;;;;;;;6.97;4.72;;;;;;;9.71;68.84;100022.58;1713413;83;21515;-42
2021/11/06 02:49:07;;;;;;;5.42;3.85;;;;;;;9.67;69.11;100038.72;1739383;82;21587;-42
2021/11/06 02:51:33;;;;;;;7.58;4.10;;;;;;;9.64;69.37;100032.60;1740966;82;21277;-42
2021/11/06 02:54:00;;;;;;;7.22;3.90;;;;;;;9.64;69.41;100023.13;1742672;81;21881;-41
2021/11/06 02:56:27;;;;;;;5.47;3.40;;;;;;;9.67;69.20;100026.53;1742888;82;21005;-42
2021/11/06 02:58:55;;;;;;;7.08;3.90;;;;;;;9.73;69.06;100037.34;1700815;82;21631;-42
2021/11/06 03:01:23;;;;;;;6.12;4.20;;;;;;;9.72;68.99;100035.00;1713400;82;21162;-42
2021/11/06 03:03:49;;;;;;;5.97;4.25;;;;;;;9.69;68.97;100040.51;1713283;82;21029;-42
2021/11/06 03:06:16;;;;;;;9.35;4.65;;;;;;;9.68;69.13;100042.22;1713877;82;21399;-42
2021/11/06 03:08:43;;;;;;;6.62;4.10;;;;;;;9.62;69.38;100047.05;1784423;80;21529;-42
2021/11/06 03:11:09;;;;;;;6.72;3.75;;;;;;;9.58;69.65;100046.91;1763695;81;21215;-43
2021/11/06 03:13:36;;;;;;;7.55;3.80;;;;;;;9.59;69.73;100046.36;1781374;80;21583;-42
2021/11/06 03:16:09;;;;;;;5.90;4.30;;;;;;;9.67;69.91;100048.75;1764739;80;20982;-43
2021/11/06 03:18:36;;;;;;;7.30;4.12;;;;;;;9.71;69.86;100049.09;1776900;79;21823;-43
2021/11/06 03:21:03;;;;;;;5.67;4.60;;;;;;;9.73;69.87;100030.58;1777620;79;20984;-42
2021/11/06 03:23:30;;;;;;;8.50;4.30;;;;;;;9.75;69.55;100037.02;1784153;79;21926;-43
2021/11/06 03:25:57;;;;;;;5.47;3.92;;;;;;;9.68;69.62;100032.19;1784984;79;20998;-42
2021/11/06 03:28:24;;;;;;;6.60;4.00;;;;;;;9.63;69.71;100037.81;1778354;78;21504;-43
2021/11/06 03:30:51;;;;;;;7.60;3.87;;;;;;;9.63;69.70;100055.41;1770356;79;21109;-41
2021/11/06 03:33:18;;;;;;;6.20;4.00;;;;;;;9.66;69.76;100054.73;1765578;79;21024;-41
2021/11/06 03:35:44;;;;;;;7.03;5.15;;;;;;;9.60;69.91;100046.59;1765524;81;21009;-43
2021/11/06 03:38:11;;;;;;;6.95;4.17;;;;;;;9.54;70.15;100044.66;1763951;79;21017;-42
2021/11/06 03:40:38;;;;;;;7.33;4.30;;;;;;;9.52;70.27;100047.48;1767278;79;21032;-42
2021/11/06 03:43:05;;;;;;;6.08;3.80;;;;;;;9.31;70.20;100020.48;1768152;79;21115;-43
2021/11/06 03:45:32;;;;;;;5.90;4.08;;;;;;;9.47;70.12;100051.76;1748303;79;20956;-42
2021/11/06 03:47:59;;;;;;;5.45;4.17;;;;;;;9.46;70.18;100059.08;1782685;79;21526;-41
2021/11/06 03:50:26;;;;;;;5.97;4.10;;;;;;;9.42;70.37;100051.97;1765706;79;21532;-43
2021/11/06 03:52:52;;;;;;;5.65;4.35;;;;;;;9.41;70.44;100054.44;1766060;79;21347;-43
2021/11/06 03:55:19;;;;;;;5.58;3.85;;;;;;;9.39;70.48;100040.47;1771406;79;21130;-41
2021/11/06 03:57:45;;;;;;;6.15;3.95;;;;;;;9.37;70.50;100037.30;1796064;79;21069;-41
2021/11/06 04:00:15;;;;;;;4.37;3.45;;;;;;;9.39;70.00;100036.41;1796510;79;21023;-42
2021/11/06 04:02:43;;;;;;;6.92;3.75;;;;;;;9.37;69.26;100046.77;1797047;79;20988;-42
2021/11/06 04:05:11;;;;;;;7.95;4.33;;;;;;;9.28;69.38;100046.86;1765837;79;21024;-42
2021/11/06 04:07:39;;;;;;;7.28;4.30;;;;;;;9.19;69.03;100046.16;1776590;79;21129;-43
2021/11/06 04:10:07;;;;;;;6.33;3.92;;;;;;;9.10;69.32;100051.63;1783583;79;20989;-42
2021/11/06 04:12:35;;;;;;;5.45;4.20;;;;;;;9.02;69.34;100051.16;1774896;79;21551;-43
2021/11/06 04:15:04;;;;;;;5.60;3.95;;;;;;;9.00;69.63;100050.71;1796675;79;20961;-43
2021/11/06 04:17:31;;;;;;;6.58;3.95;;;;;;;9.03;69.82;100038.42;1781312;79;21668;-42
2021/11/06 04:19:57;;;;;;;7.87;3.85;;;;;;;9.00;69.94;100035.84;1779931;79;21712;-42
2021/11/06 04:22:26;;;;;;;8.23;3.98;;;;;;;8.97;69.49;100028.38;1797685;79;21622;-43
2021/11/06 04:24:52;;;;;;;6.87;3.75;;;;;;;8.85;69.17;100020.78;1783064;79;20926;-42
2021/11/06 04:27:19;;;;;;;6.90;3.80;;;;;;;8.96;68.66;100041.66;1786027;79;21450;-43
2021/11/06 04:29:46;;;;;;;4.67;3.50;;;;;;;8.98;68.17;100039.98;1798265;79;21002;-42
2021/11/06 04:32:13;;;;;;;6.72;4.08;;;;;;;9.02;67.76;100040.89;1789668;79;21127;-43
2021/11/06 04:34:40;;;;;;;5.15;4.10;;;;;;;8.98;67.93;100038.07;1758787;79;20886;-42
2021/11/06 04:37:06;;;;;;;7.20;4.22;;;;;;;8.94;67.87;100033.10;1767740;79;20953;-42
2021/11/06 04:39:33;;;;;;;6.17;4.42;;;;;;;8.92;67.81;100027.22;1767839;81;20971;-43
2021/11/06 04:42:00;;;;;;;6.42;3.92;;;;;;;8.90;67.99;100033.54;1767905;79;21039;-43
2021/11/06 04:44:27;;;;;;;4.25;3.45;;;;;;;8.89;68.12;100038.71;1790776;79;21113;-43
2021/11/06 04:46:53;;;;;;;5.35;3.72;;;;;;;8.94;68.19;100046.63;1794628;79;20911;-43
2021/11/06 04:49:20;;;;;;;8.28;4.65;;;;;;;8.94;68.36;100052.03;1794152;79;21017;-43
2021/11/06 04:51:46;;;;;;;5.90;4.58;;;;;;;8.93;68.61;100051.80;1799466;79;21540;-41
2021/11/06 04:54:15;;;;;;;5.72;4.25;;;;;;;8.90;68.60;100053.82;1793420;79;21496;-43
2021/11/06 04:56:43;;;;;;;8.30;4.10;;;;;;;8.88;68.73;100062.81;1792869;79;21087;-41
2021/11/06 04:59:10;;;;;;;7.37;4.90;;;;;;;8.85;68.97;100059.43;1799287;79;20957;-43
2021/11/06 05:01:37;;;;;;;7.87;4.50;;;;;;;8.85;68.89;100068.09;1798587;78;21531;-42
2021/11/06 05:04:04;;;;;;;5.47;4.00;;;;;;;8.86;69.11;100066.98;1795199;79;21570;-42
2021/11/06 05:06:31;;;;;;;7.20;4.60;;;;;;;8.85;69.33;100070.24;1799120;78;21005;-43
2021/11/06 05:08:58;;;;;;;6.65;4.58;;;;;;;8.85;69.36;100071.59;1790123;78;21144;-41
2021/11/06 05:11:25;;;;;;;6.87;4.55;;;;;;;8.88;69.38;100072.83;1793954;78;21524;-43
2021/11/06 05:13:51;;;;;;;6.85;4.72;;;;;;;8.91;69.14;100070.25;1795790;79;20957;-41
2021/11/06 05:16:18;;;;;;;7.62;5.03;;;;;;;8.97;69.10;100078.41;1799994;79;20932;-43
2021/11/06 05:18:45;;;;;;;8.10;5.37;;;;;;;9.02;69.10;100078.76;1786764;78;21052;-43
2021/11/06 05:21:13;;;;;;;5.75;4.85;;;;;;;8.99;69.15;100076.17;1786599;79;21812;-43
2021/11/06 05:23:41;;;;;;;7.50;5.37;;;;;;;8.95;69.03;100079.31;1793979;78;21532;-42
2021/11/06 05:26:07;;;;;;;9.25;5.45;;;;;;;8.90;69.02;100090.33;1789651;80;21013;-42
2021/11/06 05:28:33;;;;;;;7.25;5.05;;;;;;;8.83;69.27;100085.99;1759942;81;21488;-43
2021/11/06 05:31:00;;;;;;;7.58;4.90;;;;;;;8.80;69.29;100089.37;1759787;81;21014;-43
2021/11/06 05:33:27;;;;;;;9.73;5.22;;;;;;;8.84;69.21;100091.64;1773780;80;21123;-41
2021/11/06 05:35:54;;;;;;;8.03;4.78;;;;;;;8.86;68.97;100083.97;1768579;80;20986;-42
2021/11/06 05:38:21;;;;;;;7.72;4.83;;;;;;;8.81;68.97;100092.28;1791487;79;21020;-42
2021/11/06 05:40:48;;;;;;;9.55;5.47;;;;;;;8.78;69.09;100092.16;1790803;80;21497;-43
2021/11/06 05:43:14;;;;;;;7.78;5.03;;;;;;;8.73;69.12;100087.73;1789098;80;21021;-41
2021/11/06 05:45:41;;;;;;;6.90;4.72;;;;;;;8.67;69.02;100089.04;1786442;80;21795;-42
2021/11/06 05:48:09;;;;;;;7.25;4.90;;;;;;;8.60;69.08;100096.89;1781309;79;20950;-42
2021/11/06 05:50:35;;;;;;;6.42;4.95;;;;;;;8.60;69.18;100103.65;1790364;80;20969;-43
2021/11/06 05:53:02;;;;;;;7.40;5.60;;;;;;;8.60;69.11;100101.74;1779980;79;21037;-42
2021/11/06 05:55:29;;;;;;;8.00;5.42;;;;;;;8.57;69.14;100105.64;1767198;80;21531;-42
2021/11/06 05:57:56;;;;;;;8.50;5.37;;;;;;;8.53;69.16;100108.21;1790888;80;21149;-43
2021/11/06 06:00:23;;;;;;;8.05;5.65;;;;;;;8.53;69.30;100108.77;1790927;79;21002;-42
2021/11/06 06:02:49;;;;;;;7.42;5.08;;;;;;;8.51;69.25;100110.47;1770278;80;21751;-43
2021/11/06 06:05:16;;;;;;;8.20;5.60;;;;;;;8.50;69.11;100113.48;1785498;80;20969;-44
2021/11/06 06:07:43;;;;;;;9.35;5.50;;;;;;;8.52;68.86;100124.19;1788677;80;21037;-43
2021/11/06 06:10:13;;;;;;;10.93;6.15;;;;;;;8.51;68.74;100136.14;1787967;78;21074;-43
2021/11/06 06:12:41;;;;;;;11.12;5.95;;;;;;;8.43;68.75;100141.56;1779227;79;20973;-43
2021/11/06 06:15:09;;;;;;;8.33;6.30;;;;;;;8.39;68.95;100150.09;1776411;80;21071;-43
2021/11/06 06:17:37;;;;;;;10.05;6.92;;;;;;;8.34;69.16;100145.67;1776892;80;21091;-43
2021/11/06 06:20:07;;;;;;;9.53;7.15;;;;;;;8.32;69.17;100145.77;1763095;80;21053;-43
2021/11/06 06:22:34;;;;;;;11.18;6.35;;;;;;;8.28;69.06;100140.97;1761448;80;21079;-43
2021/11/06 06:25:04;;;;;;;9.18;6.90;;;;;;;8.31;69.14;100149.59;1752034;80;21063;-43
2021/11/06 06:27:31;;;;;;;8.85;6.78;;;;;;;8.29;69.16;100152.05;1799154;78;20980;-43
2021/11/06 06:29:59;;;;;;;11.73;6.65;;;;;;;8.26;69.26;100160.78;1809611;79;20980;-43
2021/11/06 06:32:26;;;;;;;11.45;6.90;;;;;;;8.25;69.58;100162.45;1792748;78;21005;-43
2021/11/06 06:34:52;;;;;;;10.05;7.15;;;;;;;8.21;69.62;100153.41;1797561;79;21120;-41
2021/11/06 06:37:19;;;;;;;8.75;6.55;;;;;;;8.18;69.76;100153.48;1808815;79;21076;-39
2021/11/06 06:39:46;;;;;;;8.98;7.22;;;;;;;8.23;69.51;100157.36;1811272;79;21020;-39
2021/11/06 06:42:13;;;;;;;9.88;7.67;;;;;;;8.26;69.37;100158.08;1809210;79;20976;-39
2021/11/06 06:44:40;;;;;;;14.25;7.50;;;;;;;8.26;69.84;100155.93;1808101;79;21539;-39
2021/11/06 06:47:07;;;;;;;11.03;7.55;;;;;;;8.31;69.67;100164.44;1779377;80;21177;-39
2021/11/06 06:49:33;;;;;;;12.85;7.70;;;;;;;8.35;69.34;100164.02;1784797;79;20886;-38
2021/11/06 06:52:00;;;;;;;10.05;7.00;;;;;;;8.42;69.07;100171.08;1811082;79;20953;-39
2021/11/06 06:54:26;;;;;;;11.03;7.72;;;;;;;8.49;68.58;100175.40;1790465;79;21072;-38
2021/11/06 06:56:53;;;;;;;10.82;7.95;;;;;;;8.55;67.79;100176.81;1785534;77;21798;-38
2021/11/06 06:59:20;;;;;;;12.95;7.92;;;;;;;8.59;67.54;100181.80;1790107;79;21103;-39
2021/11/06 07:01:47;;;;;;;12.18;7.83;;;;;;;8.61;68.08;100175.52;1803837;79;21498;-39
2021/11/06 07:04:14;;;;;;;10.30;7.97;;;;;;;8.65;67.62;100176.44;1802548;79;21003;-39
2021/11/06 07:06:42;;;;;;;10.23;7.72;;;;;;;8.73;67.45;100179.09;1779018;80;21020;-39
2021/11/06 07:09:09;;;;;;;10.72;7.60;;;;;;;8.83;66.79;100173.07;1789279;78;21009;-39
2021/11/06 07:11:37;;;;;;;11.03;8.08;;;;;;;8.91;66.34;100172.21;1798043;79;21121;-39
2021/11/06 07:14:04;;;;;;;11.63;7.80;;;;;;;8.93;66.19;100169.43;1810904;79;20994;-39
2021/11/06 07:16:30;;;;;;;10.80;7.60;;;;;;;8.99;66.26;100178.14;1791548;79;21057;-39
2021/11/06 07:18:57;;;;;;;11.83;8.70;;;;;;;9.07;65.93;100178.08;1811106;79;21041;-39
2021/11/06 07:21:23;;;;;;;10.60;7.85;;;;;;;9.14;65.77;100187.83;1806238;79;20988;-39
2021/11/06 07:23:52;;;;;;;9.25;7.40;;;;;;;9.25;65.25;100181.44;1800881;79;21075;-39
2021/11/06 07:26:18;;;;;;;10.03;7.60;;;;;;;9.36;64.92;100185.89;1777138;79;21016;-38
2021/11/06 07:28:45;;;;;;;12.30;7.40;;;;;;;9.46;64.39;100189.55;1788736;80;21012;-39
2021/11/06 07:31:12;;;;;;;9.93;7.20;;;;;;;9.53;64.43;100186.56;1791858;80;20972;-38
2021/11/06 07:33:39;;;;;;;12.10;8.30;;;;;;;9.60;64.20;100173.83;1782176;79;20999;-39
2021/11/06 07:36:05;;;;;;;11.57;7.85;;;;;;;9.69;63.80;100174.53;1787185;79;21100;-38
2021/11/06 07:38:32;;;;;;;11.10;7.72;;;;;;;9.79;63.28;100174.11;1796390;79;20954;-39
2021/11/06 07:41:00;;;;;;;14.28;7.03;;;;;;;9.87;62.80;100175.96;1778848;79;21961;-39
2021/11/06 07:43:26;;;;;;;10.05;7.00;;;;;;;9.95;62.56;100184.55;1786942;79;21018;-39
2021/11/06 07:45:53;;;;;;;12.07;6.55;;;;;;;10.07;62.54;100189.78;1777020;79;21044;-40
2021/11/06 07:48:20;;;;;;;12.20;7.10;;;;;;;10.21;60.92;100194.35;1760449;80;21150;-39
2021/11/06 07:50:46;;;;;;;8.13;6.45;;;;;;;10.26;60.48;100193.55;1783836;80;20933;-39
2021/11/06 07:53:13;;;;;;;7.40;5.85;;;;;;;10.34;60.61;100195.94;1769894;80;21068;-40
2021/11/06 07:55:40;;;;;;;9.85;7.22;;;;;;;10.40;60.08;100195.95;1773310;79;21076;-40
2021/11/06 07:58:09;;;;;;;8.48;6.37;;;;;;;10.48;59.15;100199.67;1790463;80;21488;-40
2021/11/06 08:00:37;;;;;;;;;;;;;;;10.52;59.15;100204.08;1792391;79;21102;-40
2021/11/06 08:03:03;;;;;;;7.95;6.03;;;;;;;10.58;58.62;100204.66;1790499;79;20688;-40
2021/11/06 08:05:30;;;;;;;10.32;6.58;;;;;;;10.53;58.81;100213.80;1790840;79;21039;-40
2021/11/06 08:07:56;;;;;;;8.58;6.75;;;;;;;10.61;59.10;100216.96;1791780;78;21077;-40
2021/11/06 08:10:23;;;;;;;8.63;6.40;;;;;;;10.69;59.10;100213.37;1789419;79;21035;-40
2021/11/06 08:12:50;;;;;;;9.65;6.50;;;;;;;10.80;59.25;100217.75;1790668;79;23145;-40
2021/11/06 08:15:16;;;;;;;9.20;6.90;;;;;;;10.90;58.05;100219.45;1791461;80;21009;-40
2021/11/06 08:17:45;;;;;;;8.45;6.47;;;;;;;10.99;58.20;100217.20;1778116;80;20981;-39
2021/11/06 08:20:12;;;;;;;7.80;6.60;;;;;;;11.08;57.69;100215.94;1780997;80;21029;-40
2021/11/06 08:22:38;;;;;;;10.25;7.28;;;;;;;11.15;57.64;100221.57;1785189;80;21042;-39
2021/11/06 08:25:07;;;;;;;8.10;7.05;;;;;;;11.19;57.51;100221.66;1774539;79;21500;-40
2021/11/06 08:27:33;;;;;;;8.73;7.53;;;;;;;11.18;57.03;100225.53;1807178;79;21017;-40
2021/11/06 08:30:01;;;;;;;9.15;6.65;;;;;;;11.12;57.60;100229.61;1802842;79;20961;-40
2021/11/06 08:32:27;;;;;;;11.15;7.42;;;;;;;11.07;57.21;100229.84;1788761;79;20997;-40
2021/11/06 08:34:56;;;;;;;10.30;8.08;;;;;;;11.01;57.11;100231.20;1789494;79;21076;-40
2021/11/06 08:37:22;;;;;;;9.38;7.47;;;;;;;11.00;57.72;100223.63;1808112;79;21146;-40
2021/11/06 08:39:49;;;;;;;10.43;7.37;;;;;;;11.05;57.47;100224.75;1791019;79;21017;-40
2021/11/06 08:42:16;;;;;;;12.33;8.43;;;;;;;11.12;57.10;100233.68;1739267;82;21032;-39
2021/11/06 08:44:42;;;;;;;12.70;8.55;;;;;;;11.20;56.88;100235.47;1742411;81;21029;-39
2021/11/06 08:47:09;;;;;;;12.00;7.75;;;;;;;11.27;56.66;100230.27;1740416;80;21547;-39
2021/11/06 08:49:36;;;;;;;8.25;5.80;;;;;;;11.36;56.64;100231.48;1729757;83;21196;-40
2021/11/06 08:52:04;;;;;;;8.33;6.42;;;;;;;11.46;55.53;100233.16;1729492;83;21028;-39
2021/11/06 08:54:31;;;;;;;6.53;5.78;;;;;;;11.48;54.48;100236.30;1748229;81;21029;-40
2021/11/06 08:56:58;;;;;;;9.63;6.00;;;;;;;11.43;54.74;100231.67;1736380;81;21685;-40
2021/11/06 08:59:26;;;;;;;6.83;5.58;;;;;;;11.33;54.40;100237.02;1742866;82;21036;-39
2021/11/06 09:01:54;;;;;;;12.13;6.83;;;;;;;11.22;54.91;100240.00;1741503;82;22324;-40
2021/11/06 09:04:23;;;;;;;7.55;5.80;;;;;;;11.08;55.57;100233.58;1747926;82;21504;-38
2021/11/06 09:06:50;;;;;;;8.73;6.40;;;;;;;10.94;55.71;100224.21;1735236;81;22006;-39
2021/11/06 09:09:17;;;;;;;9.23;6.87;;;;;;;10.77;56.01;100226.02;1726768;82;21057;-40
2021/11/06 09:11:46;;;;;;;8.35;6.33;;;;;;;10.70;56.88;100227.13;1720955;83;21002;-38
2021/11/06 09:14:15;;;;;;;6.22;4.97;;;;;;;10.73;57.15;100230.54;1720812;83;21127;-40
2021/11/06 09:16:42;;;;;;;8.98;6.37;;;;;;;10.86;56.56;100223.98;1721158;83;21012;-40
2021/11/06 09:19:08;;;;;;;7.53;5.92;;;;;;;11.03;56.23;100223.52;1721158;83;20969;-40
2021/11/06 09:21:35;;;;;;;8.00;5.85;;;;;;;11.21;55.85;100220.20;1721201;83;21052;-40
2021/11/06 09:24:03;;;;;;;7.92;6.35;;;;;;;11.42;54.95;100210.55;1719036;83;21057;-40
2021/11/06 09:26:33;;;;;;;7.70;5.30;;;;;;;11.62;54.94;100216.34;1713432;83;21139;-40
2021/11/06 09:29:00;;;;;;;6.33;5.25;;;;;;;11.85;54.98;100211.77;1713257;83;20949;-40
2021/11/06 09:31:27;;;;;;;7.47;5.42;;;;;;;12.05;54.25;100206.69;1766168;80;21500;-40
2021/11/06 09:33:54;;;;;;;7.25;5.75;;;;;;;12.22;53.27;100209.06;1773665;80;20930;-40
2021/11/06 09:36:22;;;;;;;7.58;5.80;;;;;;;12.34;53.12;100201.41;1761987;81;21073;-39
2021/11/06 09:38:49;;;;;;;6.00;5.25;;;;;;;12.43;52.30;100202.02;1832645;78;21100;-40
2021/11/06 09:41:17;;;;;;;7.33;5.72;;;;;;;12.45;51.70;100196.44;1832550;78;20998;-40
2021/11/06 09:43:45;;;;;;;6.65;5.50;;;;;;;12.52;51.83;100206.15;1832982;78;21546;-40
2021/11/06 09:46:12;;;;;;;6.95;5.25;;;;;;;12.63;51.67;100203.69;1808163;78;21566;-39
2021/11/06 09:48:42;;;;;;;8.38;6.12;;;;;;;12.77;51.59;100200.52;1800004;78;21483;-40
2021/11/06 09:51:09;;;;;;;5.67;5.00;;;;;;;12.90;51.69;100197.33;1800133;78;21580;-40
2021/11/06 09:53:40;;;;;;;6.62;4.45;;;;;;;13.07;50.49;100205.66;1800036;78;20961;-39
2021/11/06 09:56:10;;;;;;;7.30;4.70;;;;;;;13.19;49.45;100199.34;1799833;79;20930;-39
2021/11/06 09:58:36;;;;;;;5.70;5.10;;;;;;;13.25;48.67;100194.62;1800338;79;21015;-40
2021/11/06 10:01:04;;;;;;;6.80;4.60;;;;;;;13.29;48.49;100194.13;1799863;79;21021;-41
2021/11/06 10:03:32;;;;;;;5.12;4.40;;;;;;;13.35;47.90;100187.83;1799982;79;21697;-40
2021/11/06 10:06:07;;;;;;;5.78;5.05;;;;;;;13.34;46.85;100199.86;1799700;79;21699;-40
2021/11/06 10:08:38;;;;;;;5.72;4.65;;;;;;;13.31;47.29;100201.95;1799814;79;20984;-40
2021/11/06 10:11:09;;;;;;;7.60;4.72;;;;;;;13.31;47.42;100197.87;1799656;79;21001;-40
2021/11/06 10:14:01;;;;;;;6.97;5.17;;;;;;;13.41;47.42;100199.43;1796330;79;21033;-39
2021/11/06 10:16:40;;;;;;;5.70;4.55;;;;;;;13.55;47.54;100189.98;1799761;78;21145;-40
2021/11/06 10:19:16;;;;;;;6.62;4.87;;;;;;;13.62;47.36;100196.36;1795237;79;21084;-40
2021/11/06 10:21:53;;;;;;;5.05;4.42;;;;;;;13.70;46.52;100195.94;1768479;81;20922;-39
2021/11/06 10:24:25;;;;;;;8.30;5.17;;;;;;;13.77;46.05;100187.89;1764940;80;21299;-40
2021/11/06 10:26:52;;;;;;;6.75;4.95;;;;;;;13.83;46.05;100197.35;1679569;84;21508;-40
2021/11/06 10:29:19;;;;;;;6.65;5.22;;;;;;;13.92;45.06;100185.64;1764340;81;21111;-39
2021/11/06 10:32:00;;;;;;;4.62;4.15;;;;;;;14.01;44.91;100177.23;1764293;81;20927;-40
2021/11/06 10:34:32;;;;;;;5.00;4.30;;;;;;;14.05;45.15;100183.53;1689268;84;20993;-40
2021/11/06 10:37:12;;;;;;;7.90;4.97;;;;;;;13.97;43.80;100184.56;1765696;81;21040;-40
2021/11/06 10:39:57;;;;;;;6.12;5.03;;;;;;;13.86;44.34;100177.54;1765829;81;20986;-39
2021/11/06 10:42:23;;;;;;;6.00;4.55;;;;;;;13.77;44.65;100179.71;1765931;81;21121;-40
2021/11/06 10:44:51;;;;;;;6.33;4.97;;;;;;;13.70;44.45;100178.23;1765790;81;21570;-40
2021/11/06 10:47:17;;;;;;;6.28;4.35;;;;;;;13.71;44.81;100175.69;1765684;81;20985;-40
2021/11/06 10:49:48;;;;;;;8.13;5.17;;;;;;;13.79;45.60;100180.94;1765794;81;20965;-40
2021/11/06 10:52:18;;;;;;;8.30;5.45;;;;;;;14.00;45.30;100175.08;1736150;81;21559;-40
2021/11/06 10:55:08;;;;;;;6.65;5.55;;;;;;;14.23;43.71;100177.83;1765685;81;21162;-40
2021/11/06 10:57:36;;;;;;;8.03;6.67;;;;;;;14.37;44.21;100180.03;1735397;82;21508;-40
2021/11/06 11:00:18;;;;;;;8.43;6.35;;;;;;;14.38;43.52;100182.98;1735442;82;20973;-40
2021/11/06 11:02:46;;;;;;;7.85;6.55;;;;;;;14.29;43.27;100177.14;1706803;82;21496;-40
2021/11/06 11:05:35;;;;;;;9.58;6.53;;;;;;;14.18;43.34;100181.65;1735653;82;21052;-40
2021/11/06 11:08:08;;;;;;;9.13;6.13;;;;;;;14.08;43.44;100176.80;1735675;82;21834;-39
2021/11/06 11:10:37;;;;;;;9.18;6.62;;;;;;;13.90;42.86;100183.84;1735497;82;20965;-40
2021/11/06 11:13:19;;;;;;;8.50;6.37;;;;;;;13.63;43.53;100186.25;1735587;82;20942;-40
2021/11/06 11:15:53;;;;;;;7.30;5.87;;;;;;;13.30;43.23;100184.82;1735610;82;20965;-40
2021/11/06 11:18:39;;;;;;;8.90;6.20;;;;;;;13.08;44.21;100186.82;1735652;82;21103;-40
2021/11/06 11:21:27;;;;;;;8.80;6.08;;;;;;;13.06;44.21;100173.59;1735566;82;21842;-40
2021/11/06 11:24:11;;;;;;;7.78;6.33;;;;;;;13.13;43.71;100177.05;1742904;81;21496;-40
2021/11/06 11:26:53;;;;;;;7.72;6.60;;;;;;;13.26;44.17;100168.98;1811631;79;20980;-39
2021/11/06 11:29:26;;;;;;;9.65;6.80;;;;;;;13.42;43.95;100171.05;1811653;79;20990;-40
2021/11/06 11:31:52;;;;;;;7.72;6.33;;;;;;;13.57;42.94;100165.31;1811488;79;21464;-39
2021/11/06 11:34:20;;;;;;;8.05;6.00;;;;;;;13.71;42.74;100174.33;1811474;79;21140;-40